createdAt,value
2019-05-15T00:00:50.187Z,98980.00
2019-05-15T00:03:20.137Z,98986.00
2019-05-15T00:05:49.790Z,98974.00
2019-05-15T00:08:19.118Z,98972.00
2019-05-15T00:10:48.655Z,98973.00
2019-05-15T00:13:18.621Z,98966.00
2019-05-15T00:15:48.212Z,98963.00
2019-05-15T00:18:18.505Z,98972.00
2019-05-15T00:20:49.616Z,98966.00
2019-05-15T00:23:19.448Z,98964.00
2019-05-15T00:25:49.057Z,98952.00
2019-05-15T00:28:18.731Z,98956.00
2019-05-15T00:30:48.226Z,98962.00
2019-05-15T00:33:19.327Z,98957.00
2019-05-15T00:35:48.725Z,98946.00
2019-05-15T00:38:18.776Z,98945.00
2019-05-15T00:40:49.523Z,98943.00
2019-05-15T00:43:19.382Z,98942.00
2019-05-15T00:45:48.979Z,98930.00
2019-05-15T00:48:18.663Z,98927.00
2019-05-15T00:50:48.679Z,98932.00
2019-05-15T00:53:19.572Z,98919.00
2019-05-15T00:55:49.096Z,98926.00
2019-05-15T00:58:19.927Z,98920.00
2019-05-15T01:00:49.401Z,98914.00
2019-05-15T01:03:18.665Z,98921.00
2019-05-15T01:05:48.230Z,98903.00
2019-05-15T01:08:19.191Z,98905.00
2019-05-15T01:10:49.062Z,98900.00
2019-05-15T01:13:18.974Z,98893.00
2019-05-15T01:15:49.151Z,98897.00
2019-05-15T01:18:19.000Z,98899.00
2019-05-15T01:20:49.504Z,98893.00
2019-05-15T01:23:18.915Z,98890.00
2019-05-15T01:25:48.356Z,98889.00
2019-05-15T01:28:18.353Z,98883.00
2019-05-15T01:30:48.696Z,98887.00
2019-05-15T01:33:18.899Z,98881.00
2019-05-15T01:35:48.899Z,98878.00
2019-05-15T01:38:18.845Z,98874.00
2019-05-15T01:40:48.652Z,98871.00
2019-05-15T01:43:18.875Z,98873.00
2019-05-15T01:45:48.467Z,98871.00
2019-05-15T01:48:18.903Z,98871.00
2019-05-15T01:50:49.342Z,98870.00
2019-05-15T01:53:19.678Z,98858.00
2019-05-15T01:55:48.945Z,98869.00
2019-05-15T01:58:18.956Z,98860.00
2019-05-15T02:00:48.585Z,98856.00
2019-05-15T02:03:18.504Z,98853.00
2019-05-15T02:05:48.201Z,98864.00
2019-05-15T02:08:19.080Z,98866.00
2019-05-15T02:10:49.438Z,98861.00
2019-05-15T02:13:19.341Z,98854.00
2019-05-15T02:15:48.603Z,98853.00
2019-05-15T02:18:19.197Z,98852.00
2019-05-15T02:20:49.348Z,98851.00
2019-05-15T02:23:19.044Z,98850.00
2019-05-15T02:25:48.499Z,98842.00
2019-05-15T02:28:18.361Z,98842.00
2019-05-15T02:30:50.541Z,98846.00
2019-05-15T02:33:19.309Z,98850.00
2019-05-15T02:35:50.201Z,98848.00
2019-05-15T02:38:20.253Z,98847.00
2019-05-15T02:40:49.996Z,98840.00
2019-05-15T02:43:19.407Z,98842.00
2019-05-15T02:45:50.816Z,98848.00
2019-05-15T02:48:20.207Z,98846.00
2019-05-15T02:50:50.333Z,98843.00
2019-05-15T02:53:20.801Z,98843.00
2019-05-15T02:55:50.402Z,98840.00
2019-05-15T02:58:21.471Z,98853.00
2019-05-15T03:00:53.520Z,98848.00
2019-05-15T03:03:22.062Z,98831.00
2019-05-15T03:05:51.602Z,98836.00
2019-05-15T03:08:20.885Z,98845.00
2019-05-15T03:10:50.177Z,98840.00
2019-05-15T03:13:20.204Z,98840.00
2019-05-15T03:15:49.727Z,98834.00
2019-05-15T03:18:19.546Z,98841.00
2019-05-15T03:20:50.117Z,98836.00
2019-05-15T03:23:20.240Z,98833.00
2019-05-15T03:25:49.896Z,98835.00
2019-05-15T03:28:19.369Z,98840.00
2019-05-15T03:31:15.461Z,98831.00
2019-05-15T03:33:27.034Z,98828.00
2019-05-15T03:35:54.173Z,98825.00
2019-05-15T03:38:22.344Z,98836.00
2019-05-15T03:40:51.670Z,98828.00
2019-05-15T03:43:21.001Z,98827.00
2019-05-15T03:45:50.277Z,98830.00
2019-05-15T03:48:19.902Z,98828.00
2019-05-15T03:50:49.426Z,98826.00
2019-05-15T03:53:19.442Z,98830.00
2019-05-15T03:55:49.233Z,98831.00
2019-05-15T03:58:21.568Z,98835.00
2019-05-15T04:00:50.042Z,98830.00
2019-05-15T04:03:20.367Z,98827.00
2019-05-15T04:05:49.839Z,98834.00
2019-05-15T04:08:19.630Z,98832.00
2019-05-15T04:10:49.162Z,98836.00
2019-05-15T04:13:19.735Z,98839.00
2019-05-15T04:15:50.123Z,98837.00
2019-05-15T04:18:20.138Z,98828.00
2019-05-15T04:20:49.869Z,98830.00
2019-05-15T04:23:22.482Z,98836.00
2019-05-15T04:25:53.797Z,98835.00
2019-05-15T04:28:23.050Z,98832.00
2019-05-15T04:30:52.318Z,98834.00
2019-05-15T04:33:21.911Z,98825.00
2019-05-15T04:35:51.507Z,98833.00
2019-05-15T04:38:20.785Z,98833.00
2019-05-15T04:40:50.342Z,98827.00
2019-05-15T04:43:20.031Z,98834.00
2019-05-15T04:45:49.949Z,98825.00
2019-05-15T04:48:20.178Z,98835.00
2019-05-15T04:50:49.935Z,98834.00
2019-05-15T04:53:19.521Z,98828.00
2019-05-15T04:55:49.320Z,98832.00
2019-05-15T04:58:20.851Z,98827.00
2019-05-15T05:00:54.206Z,98827.00
2019-05-15T05:03:23.476Z,98839.00
2019-05-15T05:05:52.804Z,98838.00
2019-05-15T05:08:22.076Z,98833.00
2019-05-15T05:10:51.401Z,98831.00
2019-05-15T05:13:20.683Z,98835.00
2019-05-15T05:15:50.656Z,98843.00
2019-05-15T05:18:20.346Z,98836.00
2019-05-15T05:20:49.645Z,98824.00
2019-05-15T05:23:19.509Z,98836.00
2019-05-15T05:25:49.532Z,98841.00
2019-05-15T05:28:19.324Z,98832.00
2019-05-15T05:30:48.969Z,98837.00
2019-05-15T05:33:19.007Z,98835.00
2019-05-15T05:35:48.933Z,98844.00
2019-05-15T05:38:19.519Z,98852.00
2019-05-15T05:40:50.149Z,98847.00
2019-05-15T05:43:20.448Z,98843.00
2019-05-15T05:45:49.759Z,98849.00
2019-05-15T05:48:19.340Z,98848.00
2019-05-15T05:50:50.011Z,98840.00
2019-05-15T05:53:21.145Z,98835.00
2019-05-15T05:55:53.252Z,98838.00
2019-05-15T05:58:21.636Z,98840.00
2019-05-15T06:00:51.325Z,98845.00
2019-05-15T06:03:20.583Z,98840.00
2019-05-15T06:05:50.057Z,98837.00
2019-05-15T06:08:20.117Z,98836.00
2019-05-15T06:10:50.057Z,98843.00
2019-05-15T06:13:19.661Z,98842.00
2019-05-15T06:15:49.204Z,98844.00
2019-05-15T06:18:19.459Z,98841.00
2019-05-15T06:20:50.036Z,98844.00
2019-05-15T06:23:25.478Z,98835.00
2019-05-15T06:25:51.416Z,98831.00
2019-05-15T06:28:20.756Z,98834.00
2019-05-15T06:30:50.039Z,98826.00
2019-05-15T06:33:19.305Z,98827.00
2019-05-15T06:35:49.252Z,98829.00
2019-05-15T06:38:19.664Z,98829.00
2019-05-15T06:40:50.261Z,98827.00
2019-05-15T06:43:19.808Z,98831.00
2019-05-15T06:45:49.477Z,98836.00
2019-05-15T06:48:19.351Z,98834.00
2019-05-15T06:50:49.398Z,98823.00
2019-05-15T06:53:19.837Z,98821.00
2019-05-15T06:55:49.708Z,98822.00
2019-05-15T06:58:19.970Z,98824.00
2019-05-15T07:00:49.816Z,98827.00
2019-05-15T07:03:25.167Z,98822.00
2019-05-15T07:05:51.222Z,98822.00
2019-05-15T07:08:20.927Z,98815.00
2019-05-15T07:10:50.257Z,98815.00
2019-05-15T07:13:19.530Z,98818.00
2019-05-15T07:15:50.058Z,98817.00
2019-05-15T07:18:20.261Z,98816.00
2019-05-15T07:20:50.389Z,98811.00
2019-05-15T07:23:20.208Z,98815.00
2019-05-15T07:25:50.376Z,98803.00
2019-05-15T07:28:19.784Z,98814.00
2019-05-15T07:30:49.890Z,98804.00
2019-05-15T07:33:35.394Z,98810.00
2019-05-15T07:35:50.619Z,98816.00
2019-05-15T07:38:19.940Z,98808.00
2019-05-15T07:40:56.860Z,98810.00
2019-05-15T07:43:20.218Z,98804.00
2019-05-15T07:45:55.303Z,98808.00
2019-05-15T07:48:21.096Z,98805.00
2019-05-15T07:50:50.367Z,98799.00
2019-05-15T07:53:20.306Z,98799.00
2019-05-15T07:55:50.905Z,98794.00
2019-05-15T07:58:21.989Z,98785.00
2019-05-15T08:00:51.370Z,98791.00
2019-05-15T08:03:20.642Z,98793.00
2019-05-15T08:05:58.638Z,98784.00
2019-05-15T08:08:20.913Z,98788.00
2019-05-15T08:10:50.193Z,98778.00
2019-05-15T08:13:19.474Z,98777.00
2019-05-15T08:15:49.058Z,98775.00
2019-05-15T08:18:19.427Z,98777.00
2019-05-15T08:20:49.360Z,98784.00
2019-05-15T08:23:19.462Z,98778.00
2019-05-15T08:25:48.955Z,98778.00
2019-05-15T08:28:19.178Z,98774.00
2019-05-15T08:30:49.675Z,98770.00
2019-05-15T08:33:19.704Z,98770.00
2019-05-15T08:35:51.778Z,98765.00
2019-05-15T08:38:20.234Z,98766.00
2019-05-15T08:40:49.514Z,98763.00
2019-05-15T08:43:19.157Z,98753.00
2019-05-15T08:45:49.563Z,98757.00
2019-05-15T08:48:19.238Z,98760.00
2019-05-15T08:50:49.101Z,98750.00
2019-05-15T08:53:19.601Z,98748.00
2019-05-15T08:55:49.730Z,98746.00
2019-05-15T08:58:20.756Z,98753.00
2019-05-15T09:00:52.352Z,98757.00
2019-05-15T09:03:21.232Z,98747.00
2019-05-15T09:05:50.511Z,98744.00
2019-05-15T09:08:20.031Z,98748.00
2019-05-15T09:10:50.242Z,98742.00
2019-05-15T09:13:19.781Z,98739.00
2019-05-15T09:15:49.834Z,98739.00
2019-05-15T09:18:20.288Z,98742.00
2019-05-15T09:20:49.808Z,98732.00
2019-05-15T09:23:19.916Z,98720.00
2019-05-15T09:25:50.034Z,98722.00
2019-05-15T09:28:19.677Z,98724.00
2019-05-15T09:30:49.606Z,98723.00
2019-05-15T09:33:20.071Z,98719.00
2019-05-15T09:35:49.650Z,98710.00
2019-05-15T09:38:19.205Z,98713.00
2019-05-15T09:40:50.977Z,98708.00
2019-05-15T09:43:20.060Z,98704.00
2019-05-15T09:45:49.760Z,98706.00
2019-05-15T09:48:19.996Z,98701.00
2019-05-15T09:50:49.904Z,98699.00
2019-05-15T09:53:19.421Z,98688.00
2019-05-15T09:55:49.929Z,98695.00
2019-05-15T09:58:21.040Z,98693.00
2019-05-15T10:00:52.644Z,98705.00
2019-05-15T10:03:21.578Z,98693.00
2019-05-15T10:05:50.859Z,98697.00
2019-05-15T10:08:21.310Z,98691.00
2019-05-15T10:10:51.007Z,98692.00
2019-05-15T10:13:20.565Z,98694.00
2019-05-15T10:15:51.261Z,98694.00
2019-05-15T10:18:20.904Z,98687.00
2019-05-15T10:20:50.516Z,98681.00
2019-05-15T10:23:20.187Z,98677.00
2019-05-15T10:25:49.395Z,98682.00
2019-05-15T10:28:19.757Z,98689.00
2019-05-15T10:30:50.059Z,98679.00
2019-05-15T10:33:20.376Z,98672.00
2019-05-15T10:35:49.949Z,98668.00
2019-05-15T10:38:19.656Z,98664.00
2019-05-15T10:41:04.033Z,98666.00
2019-05-15T10:43:20.795Z,98664.00
2019-05-15T10:45:50.435Z,98663.00
2019-05-15T10:48:19.692Z,98655.00
2019-05-15T10:50:48.962Z,98652.00
2019-05-15T10:53:19.049Z,98636.00
2019-05-15T10:55:49.521Z,98645.00
2019-05-15T10:58:22.014Z,98644.00
2019-05-15T11:00:50.106Z,98650.00
2019-05-15T11:03:20.164Z,98642.00
2019-05-15T11:05:49.625Z,98640.00
2019-05-15T11:08:19.235Z,98633.00
2019-05-15T11:10:49.343Z,98637.00
2019-05-15T11:13:19.543Z,98636.00
2019-05-15T11:15:49.520Z,98632.00
2019-05-15T11:18:19.061Z,98634.00
2019-05-15T11:20:49.091Z,98623.00
2019-05-15T11:23:20.121Z,98616.00
2019-05-15T11:25:50.056Z,98622.00
2019-05-15T11:28:19.326Z,98624.00
2019-05-15T11:30:49.267Z,98622.00
2019-05-15T11:33:19.394Z,98625.00
2019-05-15T11:36:00.509Z,98621.00
2019-05-15T11:38:20.441Z,98615.00
2019-05-15T11:40:49.965Z,98607.00
2019-05-15T11:43:19.958Z,98606.00
2019-05-15T11:45:49.368Z,98608.00
2019-05-15T11:48:20.498Z,98589.00
2019-05-15T11:50:49.655Z,98604.00
2019-05-15T11:53:19.419Z,98606.00
2019-05-15T11:55:49.015Z,98608.00
2019-05-15T11:58:19.130Z,98608.00
2019-05-15T12:00:49.246Z,98603.00
2019-05-15T12:03:19.273Z,98600.00
2019-05-15T12:05:48.710Z,98585.00
2019-05-15T12:08:18.540Z,98600.00
2019-05-15T12:10:48.022Z,98583.00
2019-05-15T12:13:18.901Z,98586.00
2019-05-15T12:15:48.900Z,98583.00
2019-05-15T12:18:18.463Z,98589.00
2019-05-15T12:20:48.688Z,98595.00
2019-05-15T12:23:18.182Z,98592.00
2019-05-15T12:25:48.866Z,98578.00
2019-05-15T12:28:18.630Z,98579.00
2019-05-15T12:30:49.232Z,98583.00
2019-05-15T12:33:18.973Z,98584.00
2019-05-15T12:35:50.800Z,98588.00
2019-05-15T12:38:19.537Z,98575.00
2019-05-15T13:00:58.688Z,98576.00
2019-05-15T13:03:28.890Z,98574.00
2019-05-15T13:05:58.417Z,98577.00
2019-05-15T13:08:29.015Z,98576.00
2019-05-15T13:10:58.770Z,98567.00
2019-05-15T13:13:28.541Z,98566.00
2019-05-15T13:15:58.955Z,98571.00
2019-05-15T13:18:28.824Z,98567.00
2019-05-15T13:20:59.460Z,98566.00
2019-05-15T13:23:29.456Z,98564.00
2019-05-15T13:25:59.424Z,98567.00
2019-05-15T13:28:29.251Z,98564.00
2019-05-15T13:30:59.535Z,98545.00
2019-05-15T13:33:29.069Z,98547.00
2019-05-15T13:35:58.660Z,98561.00
2019-05-15T13:38:28.806Z,98562.00
2019-05-15T13:40:58.982Z,98556.00
2019-05-15T13:43:28.991Z,98546.00
2019-05-15T13:45:59.574Z,98551.00
2019-05-15T13:48:29.788Z,98559.00
2019-05-15T13:50:59.370Z,98554.00
2019-05-15T13:53:28.822Z,98547.00
2019-05-15T13:55:58.100Z,98542.00
2019-05-15T13:58:28.210Z,98536.00
2019-05-15T14:00:58.788Z,98548.00
2019-05-15T14:03:29.048Z,98535.00
2019-05-15T14:05:58.625Z,98541.00
2019-05-15T14:08:28.767Z,98537.00
2019-05-15T14:10:58.610Z,98538.00
2019-05-15T14:13:28.845Z,98536.00
2019-05-15T14:15:58.475Z,98540.00
2019-05-15T14:18:28.682Z,98538.00
2019-05-15T14:20:58.588Z,98538.00
2019-05-15T14:23:29.424Z,98526.00
2019-05-15T14:26:12.997Z,98534.00
2019-05-15T14:28:30.617Z,98538.00
2019-05-15T14:30:59.986Z,98536.00
2019-05-15T14:33:29.467Z,98531.00
2019-05-15T14:35:59.134Z,98531.00
2019-05-15T14:38:29.194Z,98524.00
2019-05-15T14:40:59.187Z,98512.00
2019-05-15T14:43:29.407Z,98509.00
2019-05-15T14:45:59.407Z,98521.00
2019-05-15T14:48:28.681Z,98521.00
2019-05-15T14:50:58.493Z,98525.00
2019-05-15T14:53:29.433Z,98521.00
2019-05-15T14:56:00.374Z,98525.00
2019-05-15T14:58:29.869Z,98521.00
2019-05-15T15:01:03.590Z,98517.00
2019-05-15T15:03:30.764Z,98520.00
2019-05-15T15:06:00.472Z,98516.00
2019-05-15T15:08:32.207Z,98512.00
2019-05-15T15:11:00.898Z,98508.00
2019-05-15T15:13:30.448Z,98516.00
2019-05-15T15:15:59.721Z,98518.00
2019-05-15T15:18:28.989Z,98513.00
2019-05-15T15:20:58.264Z,98518.00
2019-05-15T15:23:28.393Z,98515.00
2019-05-15T15:25:58.502Z,98515.00
2019-05-15T15:28:27.951Z,98512.00
2019-05-15T15:30:58.089Z,98517.00
2019-05-15T15:33:28.840Z,98520.00
2019-05-15T15:35:58.304Z,98512.00
2019-05-15T15:38:40.559Z,98514.00
2019-05-15T15:41:00.337Z,98515.00
2019-05-15T15:43:29.573Z,98515.00
2019-05-15T15:45:59.114Z,98500.00
2019-05-15T15:48:28.803Z,98505.00
2019-05-15T15:50:58.814Z,98507.00
2019-05-15T15:53:28.689Z,98521.00
2019-05-15T15:55:58.242Z,98511.00
2019-05-15T15:58:29.067Z,98519.00
2019-05-15T16:00:58.703Z,98520.00
2019-05-15T16:03:28.725Z,98511.00
2019-05-15T16:05:58.429Z,98519.00
2019-05-15T16:08:28.650Z,98526.00
2019-05-15T16:10:58.992Z,98524.00
2019-05-15T16:13:29.270Z,98522.00
2019-05-15T16:15:58.713Z,98529.00
2019-05-15T16:18:28.896Z,98521.00
2019-05-15T16:20:58.301Z,98525.00
2019-05-15T16:23:28.241Z,98515.00
2019-05-15T16:26:00.885Z,98519.00
2019-05-15T16:28:29.300Z,98508.00
2019-05-15T16:30:58.787Z,98517.00
2019-05-15T16:33:28.476Z,98517.00
2019-05-15T16:35:58.810Z,98519.00
2019-05-15T16:38:28.516Z,98511.00
2019-05-15T16:40:58.549Z,98509.00
2019-05-15T16:43:28.650Z,98506.00
2019-05-15T16:45:58.792Z,98514.00
2019-05-15T16:48:29.323Z,98509.00
2019-05-15T16:50:59.034Z,98511.00
2019-05-15T16:53:29.056Z,98510.00
2019-05-15T16:55:58.797Z,98505.00
2019-05-15T16:58:29.710Z,98507.00
2019-05-15T17:00:59.188Z,98507.00
2019-05-15T17:03:29.015Z,98509.00
2019-05-15T17:05:58.923Z,98511.00
2019-05-15T17:08:30.397Z,98510.00
2019-05-15T17:10:59.302Z,98498.00
2019-05-15T17:13:28.918Z,98503.00
2019-05-15T17:15:58.612Z,98505.00
2019-05-15T17:18:27.849Z,98512.00
2019-05-15T17:20:59.007Z,98509.00
2019-05-15T17:23:28.133Z,98510.00
2019-05-15T17:25:58.313Z,98506.00
2019-05-15T17:28:29.003Z,98502.00
2019-05-15T17:30:58.568Z,98507.00
2019-05-15T17:33:28.911Z,98503.00
2019-05-15T17:35:58.330Z,98506.00
2019-05-15T17:38:28.692Z,98500.00
2019-05-15T17:40:58.248Z,98501.00
2019-05-15T17:43:28.688Z,98505.00
2019-05-15T17:45:58.403Z,98496.00
2019-05-15T17:48:28.781Z,98500.00
2019-05-15T17:50:59.391Z,98496.00
2019-05-15T17:53:29.015Z,98498.00
2019-05-15T17:55:58.814Z,98503.00
2019-05-15T17:58:28.957Z,98500.00
2019-05-15T18:00:59.477Z,98504.00
2019-05-15T18:03:29.648Z,98510.00
2019-05-15T18:05:59.333Z,98506.00
2019-05-15T18:08:28.882Z,98507.00
2019-05-15T18:10:58.824Z,98513.00
2019-05-15T18:13:28.781Z,98516.00
2019-05-15T18:16:03.379Z,98518.00
2019-05-15T18:18:29.197Z,98520.00
2019-05-15T18:20:58.465Z,98529.00
2019-05-15T18:23:27.820Z,98524.00
2019-05-15T18:25:58.417Z,98521.00
2019-05-15T18:28:28.282Z,98530.00
2019-05-15T18:30:58.763Z,98526.00
2019-05-15T18:33:28.241Z,98537.00
2019-05-15T18:35:58.130Z,98534.00
2019-05-15T18:38:28.142Z,98531.00
2019-05-15T18:40:58.405Z,98530.00
2019-05-15T18:43:28.454Z,98531.00
2019-05-15T18:45:58.531Z,98530.00
2019-05-15T18:48:28.860Z,98528.00
2019-05-15T18:50:58.781Z,98527.00
2019-05-15T18:53:28.447Z,98530.00
2019-05-15T18:55:58.515Z,98536.00
2019-05-15T18:58:27.829Z,98524.00
2019-05-15T19:00:58.392Z,98529.00
2019-05-15T19:03:28.095Z,98536.00
2019-05-15T19:05:58.444Z,98541.00
2019-05-15T19:08:28.365Z,98545.00
2019-05-15T19:10:58.494Z,98542.00
2019-05-15T19:13:28.407Z,98546.00
2019-05-15T19:15:58.215Z,98543.00
2019-05-15T19:18:28.058Z,98541.00
2019-05-15T19:20:58.734Z,98535.00
2019-05-15T19:23:28.460Z,98539.00
2019-05-15T19:25:58.056Z,98551.00
2019-05-15T19:28:28.525Z,98536.00
2019-05-15T19:30:58.738Z,98537.00
2019-05-15T19:33:37.038Z,98540.00
2019-05-15T19:36:01.853Z,98548.00
2019-05-15T19:38:30.233Z,98539.00
2019-05-15T19:41:02.974Z,98541.00
2019-05-15T19:43:30.548Z,98537.00
2019-05-15T19:45:59.823Z,98541.00
2019-05-15T19:48:29.452Z,98547.00
2019-05-15T19:50:59.058Z,98540.00
2019-05-15T19:53:28.458Z,98536.00
2019-05-15T19:55:58.028Z,98539.00
2019-05-15T19:58:28.610Z,98545.00
2019-05-15T20:00:58.303Z,98546.00
2019-05-15T20:03:28.366Z,98549.00
2019-05-15T20:05:57.839Z,98547.00
2019-05-15T20:08:27.830Z,98544.00
2019-05-15T20:10:59.328Z,98544.00
2019-05-15T20:13:29.157Z,98545.00
2019-05-15T20:15:58.464Z,98551.00
2019-05-15T20:18:28.033Z,98544.00
2019-05-15T20:20:58.514Z,98541.00
2019-05-15T20:23:28.873Z,98544.00
2019-05-15T20:25:58.691Z,98546.00
2019-05-15T20:28:28.577Z,98542.00
2019-05-15T20:30:58.807Z,98529.00
2019-05-15T20:33:28.679Z,98531.00
2019-05-15T20:35:58.704Z,98528.00
2019-05-15T20:38:28.736Z,98527.00
2019-05-15T20:40:59.721Z,98524.00
2019-05-15T20:43:29.209Z,98520.00
2019-05-15T20:45:58.861Z,98531.00
2019-05-15T20:48:28.898Z,98524.00
2019-05-15T20:50:59.006Z,98523.00
2019-05-15T20:53:28.789Z,98523.00
2019-05-15T20:55:58.922Z,98520.00
2019-05-15T20:58:28.355Z,98523.00
2019-05-15T21:00:59.185Z,98518.00
2019-05-15T21:03:28.611Z,98522.00
2019-05-15T21:06:00.761Z,98530.00
2019-05-15T21:08:29.150Z,98522.00
2019-05-15T21:10:59.054Z,98528.00
2019-05-15T21:13:29.840Z,98516.00
2019-05-15T21:15:59.238Z,98521.00
2019-05-15T21:18:29.067Z,98524.00
2019-05-15T21:20:58.416Z,98521.00
2019-05-15T21:23:28.585Z,98510.00
2019-05-15T21:25:59.088Z,98512.00
2019-05-15T21:28:30.000Z,98514.00
2019-05-15T21:30:59.532Z,98508.00
2019-05-15T21:33:29.196Z,98515.00
2019-05-15T21:35:58.505Z,98516.00
2019-05-15T21:38:28.371Z,98511.00
2019-05-15T21:40:58.590Z,98514.00
2019-05-15T21:43:28.076Z,98518.00
2019-05-15T21:45:59.115Z,98512.00
2019-05-15T21:48:28.754Z,98513.00
2019-05-15T21:50:58.265Z,98501.00
2019-05-15T21:53:28.723Z,98508.00
2019-05-15T21:55:58.785Z,98511.00
2019-05-15T21:58:28.522Z,98504.00
2019-05-15T22:00:58.203Z,98503.00
2019-05-15T22:03:28.727Z,98501.00
2019-05-15T22:05:58.334Z,98500.00
2019-05-15T22:08:27.913Z,98489.00
2019-05-15T22:10:57.420Z,98488.00
2019-05-15T22:13:31.177Z,98479.00
2019-05-15T22:15:59.358Z,98483.00
2019-05-15T22:18:28.760Z,98477.00
2019-05-15T22:20:58.653Z,98474.00
2019-05-15T22:23:28.138Z,98473.00
2019-05-15T22:25:58.486Z,98470.00
2019-05-15T22:28:28.335Z,98471.00
2019-05-15T22:30:58.402Z,98473.00
2019-05-15T22:33:28.451Z,98465.00
2019-05-15T22:35:59.374Z,98465.00
2019-05-15T22:38:28.967Z,98457.00
2019-05-15T22:40:58.238Z,98442.00
2019-05-15T22:43:28.824Z,98437.00
2019-05-15T22:45:58.854Z,98438.00
2019-05-15T22:48:28.710Z,98440.00
2019-05-15T22:50:58.386Z,98434.00
2019-05-15T22:53:28.854Z,98419.00
2019-05-15T22:55:58.823Z,98422.00
2019-05-15T22:58:28.296Z,98415.00
2019-05-15T23:00:59.684Z,98416.00
2019-05-15T23:03:29.055Z,98413.00
2019-05-15T23:05:58.663Z,98408.00
2019-05-15T23:08:29.060Z,98407.00
2019-05-15T23:10:58.901Z,98392.00
2019-05-15T23:13:28.742Z,98391.00
2019-05-15T23:15:58.599Z,98392.00
2019-05-15T23:18:28.340Z,98386.00
2019-05-15T23:20:59.434Z,98392.00
2019-05-15T23:23:29.086Z,98377.00
2019-05-15T23:25:58.903Z,98384.00
2019-05-15T23:28:28.283Z,98388.00
2019-05-15T23:30:57.760Z,98379.00
2019-05-15T23:33:28.244Z,98372.00
2019-05-15T23:35:58.756Z,98365.00
2019-05-15T23:38:28.092Z,98354.00
2019-05-15T23:40:59.004Z,98360.00
2019-05-15T23:43:28.673Z,98349.00
2019-05-15T23:45:58.977Z,98345.00
2019-05-15T23:48:28.650Z,98342.00
2019-05-15T23:50:59.200Z,98340.00
2019-05-15T23:53:29.025Z,98335.00
2019-05-15T23:55:58.983Z,98336.00
2019-05-15T23:58:29.113Z,98326.00
